Time;durP1;ratioP1;P1;durP2;ratioP2;P2;SDS_P1;SDS_P2;PMS_P1;PMS_P2;Temp;Humidity;BMP_temperature;BMP_pressure;BME280_temperature;BME280_humidity;BME280_pressure;Samples;Min_cycle;Max_cycle;Signal;HPM_P1;HPM_P2
2024/01/24 00:00:51;;;;;;;21.65;6.47;;;12.80;62.30;;;;;;6241945;28;20068;-71
2024/01/24 00:03:51;;;;;;;19.15;6.50;;;12.70;62.50;;;;;;6229275;28;20128;-71
2024/01/24 00:06:52;;;;;;;19.98;6.28;;;12.70;62.80;;;;;;6245059;28;21349;-72
2024/01/24 00:09:53;;;;;;;16.13;6.82;;;12.60;62.90;;;;;;6245747;28;20090;-73
2024/01/24 00:12:55;;;;;;;29.35;7.68;;;12.60;63.10;;;;;;6285409;28;20472;-72
2024/01/24 00:15:56;;;;;;;26.58;9.43;;;12.50;63.10;;;;;;6243939;28;20120;-72
2024/01/24 00:18:57;;;;;;;17.85;8.20;;;12.50;63.20;;;;;;6228526;28;20095;-71
2024/01/24 00:21:58;;;;;;;20.17;7.60;;;12.50;63.30;;;;;;6249399;28;20122;-73
2024/01/24 00:24:59;;;;;;;18.27;6.95;;;12.50;63.40;;;;;;6248834;28;20068;-73
2024/01/24 00:28:00;;;;;;;18.58;6.93;;;12.50;63.60;;;;;;6249995;28;20058;-71
2024/01/24 00:31:01;;;;;;;15.35;6.78;;;12.50;64.00;;;;;;6252834;28;20031;-72
2024/01/24 00:34:01;;;;;;;22.13;8.23;;;12.40;64.20;;;;;;6282315;28;20025;-71
2024/01/24 00:37:04;;;;;;;19.75;7.13;;;12.40;64.50;;;;;;6281558;28;20551;-72
2024/01/24 00:40:06;;;;;;;18.45;7.68;;;12.40;64.80;;;;;;6242865;28;20533;-72
2024/01/24 00:43:07;;;;;;;21.23;8.00;;;12.30;64.90;;;;;;6259862;28;20022;-73
2024/01/24 00:46:08;;;;;;;29.45;8.68;;;12.30;65.20;;;;;;6263165;28;20040;-72
2024/01/24 00:49:10;;;;;;;15.98;6.75;;;12.30;65.30;;;;;;6244047;28;20021;-73
2024/01/24 00:52:10;;;;;;;24.75;8.07;;;12.20;65.40;;;;;;6246795;28;20119;-73
2024/01/24 00:55:11;;;;;;;17.13;7.28;;;12.20;65.50;;;;;;6241875;28;20048;-73
2024/01/24 00:58:12;;;;;;;21.10;7.82;;;12.30;65.60;;;;;;6241839;28;20021;-72
2024/01/24 01:01:13;;;;;;;14.60;7.18;;;12.30;65.50;;;;;;6244819;28;20025;-72
2024/01/24 01:04:14;;;;;;;18.33;7.97;;;12.30;65.40;;;;;;6246543;28;20068;-74
2024/01/24 01:07:15;;;;;;;21.75;8.68;;;12.30;65.40;;;;;;6242727;28;20032;-71
2024/01/24 01:10:16;;;;;;;13.30;7.50;;;12.30;65.50;;;;;;6244204;28;20638;-71
2024/01/24 01:13:17;;;;;;;17.80;6.95;;;12.30;65.40;;;;;;6241848;28;20017;-72
2024/01/24 01:16:18;;;;;;;25.27;7.63;;;12.40;65.30;;;;;;6243987;28;20020;-69
2024/01/24 01:19:19;;;;;;;18.50;6.15;;;12.30;65.40;;;;;;6240991;28;20048;-73
2024/01/24 01:22:20;;;;;;;20.00;6.97;;;12.30;65.40;;;;;;6258888;28;20172;-73
2024/01/24 01:25:21;;;;;;;16.20;6.45;;;12.30;65.30;;;;;;6247246;28;20025;-72
2024/01/24 01:28:23;;;;;;;19.25;6.30;;;12.30;65.40;;;;;;6232651;28;20021;-72
2024/01/24 01:31:24;;;;;;;15.50;5.10;;;12.20;65.30;;;;;;6244021;28;20021;-70
2024/01/24 01:34:25;;;;;;;20.05;6.07;;;12.20;65.40;;;;;;6247977;28;20069;-72
2024/01/24 01:37:26;;;;;;;13.70;5.63;;;12.20;65.50;;;;;;6261450;28;20697;-71
2024/01/24 01:40:28;;;;;;;19.23;6.05;;;12.10;65.60;;;;;;6242500;28;20079;-73
2024/01/24 01:43:30;;;;;;;12.52;6.07;;;12.00;65.60;;;;;;6257457;28;20033;-72
2024/01/24 01:46:31;;;;;;;11.18;5.38;;;12.00;65.60;;;;;;6244717;28;20075;-72
2024/01/24 01:49:33;;;;;;;20.80;6.40;;;12.00;65.70;;;;;;6232784;28;20024;-70
2024/01/24 01:52:34;;;;;;;16.77;5.57;;;12.00;65.70;;;;;;6237730;28;20032;-72
2024/01/24 01:55:36;;;;;;;18.08;5.53;;;11.90;65.80;;;;;;6244232;28;20127;-71
2024/01/24 01:58:38;;;;;;;13.48;5.13;;;11.90;65.90;;;;;;6243871;28;20033;-71
2024/01/24 02:01:41;;;;;;;19.02;6.18;;;11.90;66.10;;;;;;6241650;28;20017;-72
2024/01/24 02:04:42;;;;;;;12.07;5.43;;;11.90;66.10;;;;;;6248024;28;20040;-73
2024/01/24 02:07:44;;;;;;;11.82;4.60;;;11.90;66.10;;;;;;6245286;28;20013;-72
2024/01/24 02:10:45;;;;;;;10.38;5.45;;;11.90;66.00;;;;;;6245387;28;20029;-72
2024/01/24 02:13:46;;;;;;;10.95;5.32;;;12.00;65.90;;;;;;6252559;28;20485;-71
2024/01/24 02:16:47;;;;;;;19.35;6.05;;;11.90;65.70;;;;;;6242905;28;20100;-72
2024/01/24 02:19:47;;;;;;;12.20;5.32;;;11.90;65.90;;;;;;6240473;28;20082;-69
2024/01/24 02:22:48;;;;;;;15.73;5.20;;;11.80;65.90;;;;;;6228460;28;20669;-72
2024/01/24 02:25:50;;;;;;;14.95;4.68;;;11.80;66.10;;;;;;6262068;28;20119;-72
2024/01/24 02:28:51;;;;;;;12.55;5.25;;;11.70;66.30;;;;;;6245018;28;20025;-72
2024/01/24 02:31:52;;;;;;;14.52;5.88;;;11.70;66.40;;;;;;6239785;28;20044;-73
2024/01/24 02:34:52;;;;;;;17.85;5.47;;;11.60;66.50;;;;;;6228200;28;20032;-71
2024/01/24 02:37:54;;;;;;;15.50;4.97;;;11.60;66.70;;;;;;6242607;28;20517;-73
2024/01/24 02:40:55;;;;;;;16.35;5.90;;;11.60;66.90;;;;;;6238616;28;20029;-72
2024/01/24 02:43:55;;;;;;;15.45;6.68;;;11.60;67.00;;;;;;6227571;28;20499;-73
2024/01/24 02:46:57;;;;;;;27.98;6.57;;;11.60;67.10;;;;;;6249987;28;20052;-73
2024/01/24 02:50:01;;;;;;;14.18;6.07;;;11.60;67.10;;;;;;6239556;28;20021;-72
2024/01/24 02:53:02;;;;;;;23.70;6.72;;;11.60;67.00;;;;;;6237371;28;20028;-72
2024/01/24 02:56:15;;;;;;;22.15;5.97;;;11.60;67.00;;;;;;6245645;28;20077;-72
2024/01/24 02:59:16;;;;;;;13.80;4.63;;;11.60;67.10;;;;;;6244407;28;21549;-72
2024/01/24 03:02:18;;;;;;;9.88;4.68;;;11.70;67.10;;;;;;6252850;28;20039;-72
2024/01/24 03:05:19;;;;;;;15.52;4.93;;;11.70;66.90;;;;;;6231348;28;20056;-73
2024/01/24 03:08:20;;;;;;;14.88;4.70;;;11.80;66.80;;;;;;6240058;28;20502;-72
2024/01/24 03:11:20;;;;;;;12.77;5.35;;;11.80;66.50;;;;;;6238524;28;20021;-73
2024/01/24 03:14:24;;;;;;;10.30;5.05;;;11.80;66.40;;;;;;6239112;28;20101;-72
2024/01/24 03:17:25;;;;;;;12.82;5.00;;;11.80;66.30;;;;;;6240219;28;20017;-73
2024/01/24 03:20:26;;;;;;;13.48;5.35;;;11.80;66.30;;;;;;6240847;28;20041;-72
2024/01/24 03:23:29;;;;;;;20.80;5.68;;;11.70;66.30;;;;;;6240831;28;20092;-72
2024/01/24 03:26:31;;;;;;;11.88;5.38;;;11.60;66.30;;;;;;6240464;28;20515;-72
2024/01/24 03:29:32;;;;;;;8.65;5.05;;;11.50;66.50;;;;;;6242841;28;20055;-72
2024/01/24 03:32:34;;;;;;;11.55;4.50;;;11.50;66.70;;;;;;6253375;28;20035;-72
2024/01/24 03:35:35;;;;;;;18.42;6.10;;;11.50;66.90;;;;;;6243865;28;20039;-72
2024/01/24 03:38:36;;;;;;;10.20;4.63;;;11.40;67.00;;;;;;6246029;28;20029;-72
2024/01/24 03:41:38;;;;;;;11.40;4.72;;;11.40;66.90;;;;;;6258531;28;20481;-73
2024/01/24 03:44:39;;;;;;;11.95;4.22;;;11.40;67.00;;;;;;6243125;28;20499;-72
2024/01/24 03:47:40;;;;;;;10.80;4.30;;;11.40;67.10;;;;;;6241974;28;20017;-71
2024/01/24 03:50:41;;;;;;;8.82;4.25;;;11.40;67.10;;;;;;6239418;28;20028;-70
2024/01/24 03:53:41;;;;;;;13.93;4.82;;;11.40;67.00;;;;;;6240351;28;20025;-72
2024/01/24 03:56:42;;;;;;;10.20;4.35;;;11.40;66.90;;;;;;6272154;28;20065;-72
2024/01/24 03:59:46;;;;;;;12.32;4.63;;;11.40;66.90;;;;;;6240418;28;20398;-72
2024/01/24 04:02:47;;;;;;;17.90;5.78;;;11.40;66.70;;;;;;6242157;28;20350;-72
2024/01/24 04:05:48;;;;;;;18.45;5.40;;;11.40;66.70;;;;;;6259167;28;20123;-72
2024/01/24 04:08:49;;;;;;;10.48;4.78;;;11.40;66.70;;;;;;6245694;28;20032;-72
2024/01/24 04:11:49;;;;;;;12.45;4.45;;;11.40;66.70;;;;;;6240732;28;20025;-71
2024/01/24 04:14:51;;;;;;;16.65;6.75;;;11.40;66.70;;;;;;6246350;28;20020;-72
2024/01/24 04:17:51;;;;;;;11.63;3.72;;;11.40;66.70;;;;;;6249842;28;20509;-71
2024/01/24 04:20:52;;;;;;;12.05;4.45;;;11.40;66.70;;;;;;6246777;28;20067;-72
2024/01/24 04:23:53;;;;;;;7.18;4.45;;;11.50;66.50;;;;;;6248468;28;20238;-71
2024/01/24 04:26:55;;;;;;;11.68;4.78;;;11.40;66.40;;;;;;6236125;28;20028;-71
2024/01/24 04:29:56;;;;;;;10.98;4.32;;;11.30;66.60;;;;;;6245056;28;20087;-71
2024/01/24 04:32:57;;;;;;;11.07;4.75;;;11.30;66.80;;;;;;6245215;28;20017;-72
2024/01/24 04:35:58;;;;;;;10.55;4.43;;;11.30;66.80;;;;;;6246159;28;20025;-72
2024/01/24 04:38:59;;;;;;;12.23;4.28;;;11.20;66.90;;;;;;6246420;28;20732;-72
2024/01/24 04:42:01;;;;;;;11.07;4.03;;;11.10;66.90;;;;;;6240420;28;20052;-73
2024/01/24 04:45:03;;;;;;;9.55;3.95;;;11.20;67.00;;;;;;6238052;28;20025;-73
2024/01/24 04:48:06;;;;;;;16.00;3.70;;;11.10;66.80;;;;;;6249866;28;20029;-71
2024/01/24 04:51:08;;;;;;;11.38;4.07;;;11.20;66.90;;;;;;6257086;28;20025;-71
2024/01/24 04:54:09;;;;;;;10.95;4.43;;;11.10;66.80;;;;;;6276952;28;20055;-71
2024/01/24 04:57:10;;;;;;;10.10;3.63;;;11.10;66.80;;;;;;6259290;28;20087;-72
2024/01/24 05:00:11;;;;;;;6.88;3.60;;;11.10;66.80;;;;;;6251419;28;20449;-72
2024/01/24 05:03:12;;;;;;;6.70;3.08;;;11.10;66.70;;;;;;6249042;28;21446;-72
2024/01/24 05:06:14;;;;;;;5.00;2.58;;;11.10;66.50;;;;;;6257593;28;20100;-72
2024/01/24 05:09:15;;;;;;;4.32;2.45;;;11.10;66.20;;;;;;6248480;28;20029;-71
2024/01/24 05:12:16;;;;;;;6.32;2.63;;;11.10;65.90;;;;;;6246718;28;20191;-71
2024/01/24 05:15:17;;;;;;;7.72;2.33;;;11.10;65.60;;;;;;6248927;28;20136;-71
2024/01/24 05:18:19;;;;;;;13.25;2.60;;;11.10;65.00;;;;;;6242403;28;20025;-72
2024/01/24 05:21:20;;;;;;;5.93;2.83;;;11.00;64.70;;;;;;6229109;28;20241;-73
2024/01/24 05:24:21;;;;;;;8.38;2.90;;;10.90;64.50;;;;;;6242468;28;20017;-72
2024/01/24 05:27:23;;;;;;;5.18;2.70;;;10.90;64.60;;;;;;6241592;28;21756;-71
2024/01/24 05:30:25;;;;;;;6.03;2.75;;;10.80;64.80;;;;;;6250675;28;20361;-72
2024/01/24 05:33:25;;;;;;;7.43;2.58;;;10.80;64.90;;;;;;6245118;28;20183;-72
2024/01/24 05:36:28;;;;;;;8.25;3.05;;;10.80;65.00;;;;;;6244297;28;20021;-71
2024/01/24 05:39:29;;;;;;;8.82;2.38;;;10.80;65.00;;;;;;6247303;28;20021;-72
2024/01/24 05:42:30;;;;;;;9.50;2.65;;;10.90;65.10;;;;;;6244083;28;20376;-72
2024/01/24 05:45:31;;;;;;;9.05;2.97;;;10.80;65.00;;;;;;6244550;28;20033;-71
2024/01/24 05:48:33;;;;;;;5.70;2.85;;;10.90;65.00;;;;;;6245385;28;20071;-72
2024/01/24 05:51:34;;;;;;;8.98;3.42;;;10.80;64.90;;;;;;6245341;28;20013;-72
2024/01/24 05:54:36;;;;;;;10.52;4.15;;;10.80;65.00;;;;;;6244086;28;20107;-71
2024/01/24 05:57:39;;;;;;;6.63;3.13;;;10.80;65.20;;;;;;6229746;28;20020;-71
2024/01/24 06:00:40;;;;;;;8.50;4.25;;;10.80;65.50;;;;;;6242311;28;20041;-72
2024/01/24 06:03:41;;;;;;;8.85;3.53;;;10.70;65.70;;;;;;6251598;28;20048;-70
2024/01/24 06:06:42;;;;;;;9.52;4.05;;;10.70;65.90;;;;;;6248118;28;20029;-71
2024/01/24 06:09:43;;;;;;;12.50;4.22;;;10.70;66.10;;;;;;6241880;28;20064;-72
2024/01/24 06:12:44;;;;;;;15.45;4.78;;;10.60;66.20;;;;;;6247246;28;20064;-73
2024/01/24 06:15:44;;;;;;;13.40;4.22;;;10.60;66.40;;;;;;6243427;28;20069;-71
2024/01/24 06:18:45;;;;;;;8.27;3.47;;;10.60;66.40;;;;;;6231394;28;20096;-72
2024/01/24 06:21:47;;;;;;;8.57;3.70;;;10.60;66.50;;;;;;6246905;28;20021;-72
2024/01/24 06:24:48;;;;;;;15.45;4.50;;;10.70;66.60;;;;;;6233116;28;20021;-72
2024/01/24 06:27:49;;;;;;;10.55;4.95;;;10.70;66.60;;;;;;6224698;28;20026;-72
2024/01/24 06:30:52;;;;;;;12.02;4.43;;;10.80;66.50;;;;;;6269413;28;20063;-71
2024/01/24 06:33:54;;;;;;;7.88;4.20;;;10.80;66.50;;;;;;6234777;28;20037;-72
2024/01/24 06:36:55;;;;;;;12.63;4.65;;;10.80;66.60;;;;;;6258569;28;20025;-71
2024/01/24 06:39:56;;;;;;;9.82;4.70;;;10.80;66.60;;;;;;6210281;28;20080;-71
2024/01/24 06:42:58;;;;;;;11.68;4.05;;;10.80;66.60;;;;;;6243075;28;20033;-72
2024/01/24 06:46:02;;;;;;;7.22;3.35;;;10.80;66.70;;;;;;6241888;28;20628;-72
2024/01/24 06:49:03;;;;;;;8.20;3.58;;;10.80;66.90;;;;;;6248543;28;20013;-72
2024/01/24 06:52:04;;;;;;;12.20;3.70;;;10.80;67.00;;;;;;6245148;28;20051;-72
2024/01/24 06:55:05;;;;;;;8.82;4.50;;;10.80;66.90;;;;;;6243518;28;20033;-70
2024/01/24 06:58:07;;;;;;;6.72;3.42;;;10.80;66.90;;;;;;6281381;28;20025;-72
2024/01/24 07:01:08;;;;;;;5.88;3.13;;;10.80;66.90;;;;;;6265789;28;20044;-72
2024/01/24 07:04:09;;;;;;;20.77;4.78;;;10.70;67.00;;;;;;6240321;28;20036;-72
2024/01/24 07:07:10;;;;;;;10.48;3.78;;;10.70;67.10;;;;;;6273985;28;20048;-71
2024/01/24 07:10:12;;;;;;;7.38;4.32;;;10.60;67.30;;;;;;6229963;28;20043;-73
2024/01/24 07:13:13;;;;;;;9.38;3.47;;;10.50;67.40;;;;;;6244730;28;20055;-72
2024/01/24 07:16:14;;;;;;;6.47;3.45;;;10.50;67.60;;;;;;6243822;28;20025;-72
2024/01/24 07:19:16;;;;;;;11.40;3.85;;;10.50;67.80;;;;;;6241537;28;20128;-72
2024/01/24 07:22:18;;;;;;;7.68;3.70;;;10.40;67.80;;;;;;6239679;28;20033;-72
2024/01/24 07:25:20;;;;;;;7.82;3.60;;;10.30;68.00;;;;;;6226760;28;20033;-72
2024/01/24 07:28:23;;;;;;;12.10;3.83;;;10.40;68.20;;;;;;6240328;28;20112;-71
2024/01/24 07:31:23;;;;;;;7.97;4.10;;;10.30;68.20;;;;;;6256979;28;20661;-70
2024/01/24 07:34:25;;;;;;;12.35;4.55;;;10.30;68.40;;;;;;6239756;28;20103;-72
2024/01/24 07:37:26;;;;;;;11.48;3.88;;;10.30;68.60;;;;;;6244197;28;20022;-72
2024/01/24 07:40:27;;;;;;;11.95;4.78;;;10.30;68.60;;;;;;6243775;28;20032;-72
2024/01/24 07:43:29;;;;;;;11.90;4.05;;;10.30;68.70;;;;;;6249490;28;20393;-73
2024/01/24 07:46:32;;;;;;;11.00;4.25;;;10.40;68.70;;;;;;6246107;28;20021;-73
2024/01/24 07:49:33;;;;;;;9.93;4.53;;;10.50;68.60;;;;;;6249846;28;20028;-72
2024/01/24 07:52:34;;;;;;;9.82;4.78;;;10.60;68.50;;;;;;6251710;28;20017;-73
2024/01/24 07:55:36;;;;;;;7.38;3.95;;;10.60;68.40;;;;;;6247026;28;20056;-72
2024/01/24 07:58:40;;;;;;;10.30;4.20;;;10.70;68.20;;;;;;6247006;28;20033;-73
2024/01/24 08:01:45;;;;;;;12.35;4.18;;;10.80;68.00;;;;;;6233851;28;20086;-72
2024/01/24 08:04:46;;;;;;;9.90;4.07;;;10.90;68.00;;;;;;6237686;28;20074;-72
2024/01/24 08:07:46;;;;;;;8.95;4.80;;;11.00;67.90;;;;;;6247039;28;20430;-73
2024/01/24 08:10:47;;;;;;;12.65;4.18;;;11.00;67.60;;;;;;6247250;28;20130;-72
2024/01/24 08:13:48;;;;;;;11.95;3.80;;;11.00;67.60;;;;;;6251303;28;20069;-72
2024/01/24 08:17:03;;;;;;;9.35;3.88;;;11.00;67.70;;;;;;6251021;28;20025;-72
2024/01/24 08:20:08;;;;;;;7.78;4.00;;;11.10;67.70;;;;;;6254174;28;20082;-71
2024/01/24 08:23:09;;;;;;;7.13;3.45;;;11.20;67.60;;;;;;6249134;28;20029;-72
2024/01/24 08:26:10;;;;;;;9.77;4.13;;;11.30;67.50;;;;;;6262107;28;20061;-71
2024/01/24 08:29:10;;;;;;;6.45;3.85;;;11.50;67.20;;;;;;6244596;28;20032;-72
2024/01/24 08:32:11;;;;;;;15.77;5.53;;;11.60;66.90;;;;;;6250488;28;20587;-72
2024/01/24 08:35:13;;;;;;;6.45;3.05;;;11.70;66.50;;;;;;6243469;28;20031;-72
2024/01/24 08:38:13;;;;;;;7.97;2.75;;;11.80;65.60;;;;;;6249301;28;20139;-71
2024/01/24 08:41:14;;;;;;;10.55;2.53;;;11.80;64.20;;;;;;6240939;28;20075;-72
2024/01/24 08:44:17;;;;;;;6.65;3.35;;;11.90;63.40;;;;;;6232945;28;20132;-73
2024/01/24 08:47:18;;;;;;;20.75;3.20;;;11.90;62.80;;;;;;6259500;28;20018;-72
2024/01/24 08:50:19;;;;;;;6.65;2.78;;;11.90;62.70;;;;;;6246995;28;20021;-73
2024/01/24 08:53:20;;;;;;;10.00;2.78;;;12.00;62.70;;;;;;6248416;28;20040;-72
2024/01/24 08:56:21;;;;;;;8.48;3.20;;;12.20;62.60;;;;;;6244614;28;20026;-72
2024/01/24 08:59:23;;;;;;;4.15;2.75;;;12.40;62.10;;;;;;6243507;28;20021;-72
2024/01/24 09:02:25;;;;;;;12.30;2.97;;;12.60;61.70;;;;;;6237826;28;20183;-71
2024/01/24 09:05:27;;;;;;;13.32;3.70;;;12.80;61.50;;;;;;6259446;28;20104;-73
2024/01/24 09:08:28;;;;;;;11.75;3.58;;;12.90;61.00;;;;;;6249518;28;20028;-73
2024/01/24 09:11:31;;;;;;;5.68;3.20;;;13.10;60.60;;;;;;6246456;28;20058;-72
2024/01/24 09:14:32;;;;;;;13.63;3.70;;;13.20;60.00;;;;;;6246250;28;20032;-72
2024/01/24 09:17:35;;;;;;;13.60;3.25;;;13.30;59.80;;;;;;6250694;28;20017;-73
2024/01/24 09:20:37;;;;;;;17.45;4.28;;;13.30;59.50;;;;;;6245148;28;20412;-71
2024/01/24 09:23:38;;;;;;;12.38;3.58;;;13.50;59.50;;;;;;6244530;28;20025;-73
2024/01/24 09:26:39;;;;;;;5.63;3.10;;;13.60;59.20;;;;;;6244398;28;20724;-70
2024/01/24 09:29:40;;;;;;;8.55;3.25;;;13.60;58.90;;;;;;6243398;28;20441;-71
2024/01/24 09:32:40;;;;;;;8.07;3.17;;;13.70;58.90;;;;;;6250128;28;20039;-73
2024/01/24 09:35:44;;;;;;;6.00;2.97;;;13.80;58.70;;;;;;6272073;28;20437;-72
2024/01/24 09:38:46;;;;;;;7.28;3.53;;;13.80;58.70;;;;;;6246039;28;20017;-72
2024/01/24 09:41:50;;;;;;;9.50;3.50;;;14.00;58.50;;;;;;6245934;28;20469;-73
2024/01/24 09:44:51;;;;;;;8.20;3.20;;;14.10;58.10;;;;;;6243728;28;20029;-72
2024/01/24 09:47:52;;;;;;;9.48;2.95;;;14.20;57.90;;;;;;6245486;28;20146;-72
2024/01/24 09:50:53;;;;;;;11.95;3.03;;;14.30;57.30;;;;;;6245774;28;20088;-72
2024/01/24 09:53:56;;;;;;;7.00;3.60;;;14.40;57.10;;;;;;6248690;28;20025;-72
2024/01/24 09:56:58;;;;;;;13.23;4.65;;;14.50;57.10;;;;;;6247797;28;20025;-72
2024/01/24 10:00:00;;;;;;;8.85;3.33;;;14.60;56.80;;;;;;6241110;28;20211;-72
2024/01/24 10:03:01;;;;;;;16.73;4.88;;;14.60;56.00;;;;;;6258279;28;20028;-71
2024/01/24 10:06:03;;;;;;;17.63;4.07;;;14.60;56.00;;;;;;6239795;28;20095;-72
2024/01/24 10:09:04;;;;;;;10.23;3.88;;;14.60;56.50;;;;;;6245551;28;20129;-73
2024/01/24 10:12:05;;;;;;;13.57;3.58;;;14.50;55.80;;;;;;6246126;28;20028;-72
2024/01/24 10:15:07;;;;;;;11.35;4.93;;;14.50;55.90;;;;;;6247746;28;20064;-73
2024/01/24 10:18:09;;;;;;;11.80;4.65;;;14.50;56.00;;;;;;6249437;28;20017;-72
2024/01/24 10:21:13;;;;;;;12.45;4.55;;;14.50;56.00;;;;;;6248072;28;20055;-74
2024/01/24 10:24:48;;;;;;;10.48;4.45;;;14.60;56.40;;;;;;6243747;28;20025;-73
2024/01/24 10:28:14;;;;;;;12.23;4.35;;;14.80;56.40;;;;;;6244832;28;20182;-73
2024/01/24 10:31:19;;;;;;;10.80;3.72;;;15.10;55.50;;;;;;6245886;28;20082;-73
2024/01/24 10:34:21;;;;;;;8.05;3.33;;;15.10;55.50;;;;;;6241548;28;20022;-71
2024/01/24 10:37:22;;;;;;;9.65;4.75;;;15.20;55.80;;;;;;6245929;28;20076;-72
2024/01/24 10:40:23;;;;;;;14.50;4.78;;;15.30;55.80;;;;;;6276941;28;20492;-74
2024/01/24 10:43:25;;;;;;;17.92;4.72;;;15.60;55.50;;;;;;6247764;28;20028;-71
2024/01/24 10:46:26;;;;;;;11.43;4.32;;;15.80;55.10;;;;;;6242226;28;20010;-73
2024/01/24 10:49:29;;;;;;;10.88;4.53;;;15.90;54.70;;;;;;6262813;28;20035;-72
2024/01/24 10:52:31;;;;;;;14.88;4.57;;;16.20;54.30;;;;;;6222725;28;20044;-72
2024/01/24 10:55:33;;;;;;;29.77;10.60;;;16.50;53.80;;;;;;6244661;28;20203;-73
2024/01/24 10:58:34;;;;;;;19.98;7.40;;;16.80;53.30;;;;;;6248363;28;20028;-72
2024/01/24 11:01:35;;;;;;;12.52;5.85;;;17.10;52.50;;;;;;6243012;28;20029;-73
2024/01/24 11:04:38;;;;;;;17.10;7.32;;;17.50;52.00;;;;;;6242223;28;20021;-73
2024/01/24 11:07:54;;;;;;;19.25;6.95;;;18.00;50.60;;;;;;6257366;28;20059;-72
2024/01/24 11:10:59;;;;;;;16.77;7.45;;;18.40;49.60;;;;;;6260685;28;20116;-73
2024/01/24 11:14:01;;;;;;;7.30;3.78;;;18.90;48.60;;;;;;6245831;28;20112;-72
2024/01/24 11:17:05;;;;;;;10.77;4.25;;;19.30;47.80;;;;;;6242696;28;20032;-73
2024/01/24 11:20:07;;;;;;;9.50;3.63;;;19.70;47.10;;;;;;6272104;28;20112;-72
2024/01/24 11:23:45;;;;;;;7.47;3.28;;;20.20;45.60;;;;;;6259779;28;20025;-74
2024/01/24 11:26:48;;;;;;;11.75;4.25;;;20.70;44.80;;;;;;6252141;28;20013;-73
2024/01/24 11:29:48;;;;;;;11.80;5.70;;;21.30;43.30;;;;;;6248691;28;20580;-74
2024/01/24 11:32:54;;;;;;;12.18;4.82;;;21.70;41.90;;;;;;6253195;28;20043;-74
2024/01/24 11:35:56;;;;;;;9.65;4.07;;;22.20;41.80;;;;;;6241997;28;20103;-72
2024/01/24 11:38:56;;;;;;;14.15;4.10;;;22.60;40.20;;;;;;6263305;28;20437;-73
2024/01/24 11:42:33;;;;;;;12.80;4.57;;;23.10;39.60;;;;;;6243434;28;20048;-73
2024/01/24 11:45:35;;;;;;;6.85;3.53;;;23.30;38.70;;;;;;6248997;28;20388;-73
2024/01/24 11:48:37;;;;;;;13.80;4.55;;;23.60;38.50;;;;;;6245585;28;20060;-70
2024/01/24 11:51:38;;;;;;;9.13;3.85;;;24.00;37.90;;;;;;6247396;28;20175;-74
2024/01/24 11:54:51;;;;;;;13.20;4.50;;;24.30;37.50;;;;;;6248319;28;20047;-72
2024/01/24 11:57:52;;;;;;;11.65;4.80;;;24.60;36.40;;;;;;6243925;28;20042;-73
2024/01/24 12:01:00;;;;;;;12.30;4.20;;;24.70;36.40;;;;;;6251470;28;20119;-72
2024/01/24 12:04:02;;;;;;;11.35;4.03;;;25.10;36.20;;;;;;6264207;28;20052;-73
2024/01/24 12:07:05;;;;;;;8.75;2.88;;;25.30;35.20;;;;;;6252400;28;20028;-73
2024/01/24 12:10:08;;;;;;;12.43;4.38;;;25.30;34.50;;;;;;6237002;28;20390;-73
2024/01/24 12:13:10;;;;;;;6.00;2.60;;;24.70;34.60;;;;;;6267771;28;20093;-72
2024/01/24 12:16:18;;;;;;;5.97;2.83;;;23.70;35.90;;;;;;6243522;28;20048;-74
2024/01/24 12:19:22;;;;;;;3.97;2.47;;;22.60;37.50;;;;;;6253226;28;20069;-72
2024/01/24 12:22:24;;;;;;;6.70;2.65;;;21.80;39.10;;;;;;6247073;28;20485;-73
2024/01/24 12:25:28;;;;;;;10.65;2.70;;;21.10;40.30;;;;;;6251777;28;20547;-73
2024/01/24 12:28:29;;;;;;;11.25;4.38;;;20.50;41.10;;;;;;6245394;28;20017;-73
2024/01/24 12:31:32;;;;;;;8.40;3.35;;;20.00;42.10;;;;;;6245003;28;20017;-73
2024/01/24 12:34:33;;;;;;;9.02;3.33;;;19.60;42.80;;;;;;6247367;28;20017;-71
2024/01/24 12:37:38;;;;;;;3.40;2.15;;;19.30;43.40;;;;;;6242509;28;20063;-73
2024/01/24 12:40:38;;;;;;;8.63;3.67;;;19.10;43.80;;;;;;6247789;28;20029;-73
2024/01/24 12:43:40;;;;;;;11.55;3.08;;;18.90;44.20;;;;;;6242305;28;20069;-73
2024/01/24 12:46:40;;;;;;;6.05;2.95;;;18.70;44.70;;;;;;6241752;28;20036;-74
2024/01/24 12:49:41;;;;;;;16.33;2.95;;;18.50;44.90;;;;;;6246378;28;20017;-73
2024/01/24 12:52:43;;;;;;;4.85;2.30;;;18.30;45.20;;;;;;6244445;28;20133;-73
2024/01/24 12:55:44;;;;;;;4.80;2.25;;;18.20;45.60;;;;;;6247590;28;20058;-72
2024/01/24 12:58:45;;;;;;;5.93;2.55;;;18.10;46.00;;;;;;6243233;28;20051;-72
2024/01/24 13:01:47;;;;;;;8.13;3.00;;;18.00;46.30;;;;;;6261535;28;20033;-72
2024/01/24 13:04:49;;;;;;;11.40;2.90;;;17.90;46.50;;;;;;6257240;28;20119;-74
2024/01/24 13:07:50;;;;;;;9.85;2.63;;;17.90;46.80;;;;;;6234614;28;20046;-74
2024/01/24 13:10:52;;;;;;;4.85;2.03;;;17.90;47.00;;;;;;6247302;28;20052;-73
2024/01/24 13:13:52;;;;;;;4.88;2.08;;;17.90;47.00;;;;;;6234661;28;20073;-72
2024/01/24 13:16:53;;;;;;;5.07;2.33;;;17.90;47.10;;;;;;6231946;28;20029;-73
2024/01/24 13:19:54;;;;;;;7.97;2.38;;;17.80;47.20;;;;;;6224926;28;20021;-72
2024/01/24 13:22:56;;;;;;;20.88;3.88;;;17.90;47.50;;;;;;6251469;28;20041;-71
2024/01/24 13:25:59;;;;;;;5.93;2.13;;;17.90;47.60;;;;;;6262214;28;20409;-73
2024/01/24 13:29:00;;;;;;;11.98;2.85;;;17.90;47.50;;;;;;6247697;28;20040;-72
2024/01/24 13:32:01;;;;;;;5.15;2.20;;;17.90;47.60;;;;;;6246982;28;20029;-72
2024/01/24 13:35:03;;;;;;;9.88;2.55;;;18.00;47.80;;;;;;6252094;28;20051;-72
2024/01/24 13:38:04;;;;;;;7.22;2.78;;;18.00;47.80;;;;;;6239983;28;20154;-72
2024/01/24 13:41:05;;;;;;;7.75;2.60;;;18.00;47.70;;;;;;6256729;28;20026;-72
2024/01/24 13:44:07;;;;;;;7.50;3.15;;;18.00;47.80;;;;;;6248639;28;20104;-72
2024/01/24 13:47:07;;;;;;;24.90;7.50;;;18.00;47.90;;;;;;6256983;28;20112;-73
2024/01/24 13:50:09;;;;;;;8.18;3.13;;;18.00;47.90;;;;;;6246293;28;20009;-72
2024/01/24 13:53:10;;;;;;;8.02;2.80;;;18.00;48.00;;;;;;6242952;28;20106;-72
2024/01/24 13:56:11;;;;;;;23.85;3.40;;;18.10;48.10;;;;;;6245963;28;20032;-71
2024/01/24 13:59:15;;;;;;;6.72;2.78;;;18.10;48.70;;;;;;6240836;28;20030;-73
2024/01/24 14:02:16;;;;;;;5.75;2.83;;;18.10;48.20;;;;;;6245316;28;20045;-73
2024/01/24 14:05:17;;;;;;;7.22;2.08;;;18.10;48.30;;;;;;6265721;28;20017;-73
2024/01/24 14:08:18;;;;;;;4.72;1.85;;;18.20;48.40;;;;;;6241178;28;20489;-73
2024/01/24 14:11:18;;;;;;;3.55;1.35;;;18.20;48.40;;;;;;6243080;28;20014;-73
2024/01/24 14:14:19;;;;;;;2.67;1.80;;;18.20;48.40;;;;;;6245976;28;20036;-73
2024/01/24 14:17:21;;;;;;;7.95;2.33;;;18.20;48.40;;;;;;6231718;28;20060;-71
2024/01/24 14:20:24;;;;;;;5.47;1.80;;;18.30;48.40;;;;;;6242522;28;20489;-71
2024/01/24 14:23:25;;;;;;;5.93;2.20;;;18.30;48.50;;;;;;6241446;28;20461;-72
2024/01/24 14:26:30;;;;;;;6.55;1.92;;;18.30;48.60;;;;;;6241923;28;20027;-74
2024/01/24 14:29:30;;;;;;;9.05;1.98;;;18.30;48.70;;;;;;6244978;28;20032;-73
2024/01/24 14:32:32;;;;;;;10.73;2.60;;;18.30;48.80;;;;;;6247693;28;20640;-73
2024/01/24 14:35:33;;;;;;;7.28;2.28;;;18.30;48.80;;;;;;6242207;28;20544;-72
2024/01/24 14:38:34;;;;;;;4.80;2.25;;;18.30;48.90;;;;;;6232061;28;20171;-74
2024/01/24 14:41:35;;;;;;;7.18;2.05;;;18.40;48.90;;;;;;6239818;28;20112;-72
2024/01/24 14:44:36;;;;;;;7.30;2.08;;;18.30;48.90;;;;;;6243262;28;20024;-73
2024/01/24 14:47:37;;;;;;;3.72;1.92;;;18.30;49.00;;;;;;6249628;28;20016;-74
2024/01/24 14:50:38;;;;;;;3.28;2.05;;;18.30;49.00;;;;;;6258015;28;20116;-72
2024/01/24 14:53:40;;;;;;;5.30;1.88;;;18.30;49.10;;;;;;6241489;28;20045;-73
2024/01/24 14:56:41;;;;;;;7.00;2.05;;;18.30;49.10;;;;;;6244275;28;20112;-73
2024/01/24 14:59:42;;;;;;;4.05;1.88;;;18.30;49.20;;;;;;6270047;28;20025;-73
2024/01/24 15:02:43;;;;;;;4.13;1.58;;;18.30;49.20;;;;;;6275961;28;20132;-74
2024/01/24 15:05:44;;;;;;;2.92;1.85;;;18.30;49.30;;;;;;6235342;28;20082;-72
2024/01/24 15:08:45;;;;;;;2.95;1.55;;;18.30;49.30;;;;;;6245200;28;20021;-76
2024/01/24 15:11:47;;;;;;;2.40;1.65;;;18.30;49.20;;;;;;6244340;28;20022;-72
2024/01/24 15:14:48;;;;;;;1.67;0.88;;;18.40;49.20;;;;;;6237406;28;20052;-74
2024/01/24 15:17:50;;;;;;;1.30;0.90;;;18.40;49.30;;;;;;6281231;28;20419;-74
2024/01/24 15:20:51;;;;;;;12.23;1.98;;;18.50;49.40;;;;;;6241739;28;20181;-73
2024/01/24 15:23:51;;;;;;;3.33;1.55;;;18.50;49.30;;;;;;6243623;28;20036;-74
2024/01/24 15:26:52;;;;;;;3.80;1.98;;;18.50;49.30;;;;;;6240633;28;20474;-74
2024/01/24 15:29:54;;;;;;;3.80;1.55;;;18.50;49.20;;;;;;6240259;28;20133;-74
2024/01/24 15:32:55;;;;;;;3.28;1.63;;;18.50;49.20;;;;;;6257060;28;20076;-72
2024/01/24 15:35:56;;;;;;;2.55;1.65;;;18.50;49.40;;;;;;6247930;28;20457;-72
2024/01/24 15:38:57;;;;;;;5.28;1.50;;;18.50;49.40;;;;;;6244380;28;20147;-73